Search METAR Data

METAR Data for ENHV:

ENHV 241420Z AUTO 16006KT 100V260 9999 FEW033/// SCT200/// 05/00 Q1015